Capitol Logistics 236


KIAD
Washington Dulles International Airport
Dulles, Virginia, US
KRIV
March Air Reserve Base
Riverside, California, US

Route Details

Aircraft Information
Primary: Boeing 767-300BDSF
Backup: Not Available
Route Data
Distance: 1970nm
Sched. Duration: 5h 29m
Avg. Duration: 5h 37m (+7m)
Times Flown: 3
Recm'd Route: BUNZZ3 RAMAY Q72 HACKS J149 EMPTY J80 SAAGS J80 MCI J24 SLN J102 LAA J102 GUP J96 PKE J78 TRM ARKOE1
Planned Altitude: 34,000ft
Origin Wx: KIAD 030152Z 19005KT 10SM FEW080 FEW200 21/13 A2987 RMK AO2 SLP113 T02110133
Dest. Wx: KRIV 030158Z AUTO 30009KT 10SM CLR 28/13 A2997 RMK AO2 SLP137 T02770132
Notes:

Financial History
Total Freight: 216,199lbs
Average Load: 72,066lbs/flt
Fuel Used: 170,752lbs
Avg. Fuel Used: 56,917lbs/flt
Fuel Expense: $220,270
Avg. Fuel Expense: $73,423
Avg. Fuel Cost: $1.29/lbs
Total Gross Income: $358,890
Pilot Pay: $727
Total Expenses: $38,916
Total Revenue: $95,183
Average Revenue: $119,630.11